sensor_id;sensor_type;location;lat;lon;timestamp;pressure;altitude;pressure_sealevel;temperature;humidity
47712;BME280;57457;51.634;5.886;2023-03-24T00:09:29;99700;;;12.2;87.6
47712;BME280;57457;51.634;5.886;2023-03-24T00:22:49;99600;;;12.3;87.7
47712;BME280;57457;51.634;5.886;2023-03-24T00:36:10;99600;;;12.3;87.9
47712;BME280;57457;51.634;5.886;2023-03-24T00:49:31;99600;;;12.3;87.8
47712;BME280;57457;51.634;5.886;2023-03-24T01:02:53;99600;;;12.4;87.4
47712;BME280;57457;51.634;5.886;2023-03-24T01:16:14;99600;;;12.5;87.0
47712;BME280;57457;51.634;5.886;2023-03-24T01:29:34;99500;;;12.7;87.0
47712;BME280;57457;51.634;5.886;2023-03-24T01:42:54;99500;;;12.7;87.5
47712;BME280;57457;51.634;5.886;2023-03-24T01:56:15;99500;;;12.8;88.1
47712;BME280;57457;51.634;5.886;2023-03-24T02:09:37;99500;;;12.7;88.4
47712;BME280;57457;51.634;5.886;2023-03-24T02:22:57;99500;;;12.7;88.4
47712;BME280;57457;51.634;5.886;2023-03-24T02:36:17;99500;;;12.7;88.4
47712;BME280;57457;51.634;5.886;2023-03-24T02:49:38;99500;;;12.8;88.1
47712;BME280;57457;51.634;5.886;2023-03-24T03:02:58;99500;;;12.9;88.0
47712;BME280;57457;51.634;5.886;2023-03-24T03:16:18;99500;;;12.9;88.0
47712;BME280;57457;51.634;5.886;2023-03-24T03:29:39;99500;;;12.9;87.8
47712;BME280;57457;51.634;5.886;2023-03-24T03:43:01;99500;;;13.0;86.5
47712;BME280;57457;51.634;5.886;2023-03-24T03:56:22;99500;;;13.0;82.2
47712;BME280;57457;51.634;5.886;2023-03-24T04:09:42;99500;;;12.8;83.5
47712;BME280;57457;51.634;5.886;2023-03-24T04:23:02;99600;;;12.3;84.1
47712;BME280;57457;51.634;5.886;2023-03-24T04:49:42;99600;;;11.6;84.1
47712;BME280;57457;51.634;5.886;2023-03-24T05:03:03;99700;;;11.4;83.9
47712;BME280;57457;51.634;5.886;2023-03-24T05:16:23;99700;;;11.3;83.9
47712;BME280;57457;51.634;5.886;2023-03-24T05:29:45;99700;;;11.1;84.3
47712;BME280;57457;51.634;5.886;2023-03-24T05:43:06;99700;;;10.8;84.4
47712;BME280;57457;51.634;5.886;2023-03-24T05:56:26;99700;;;10.6;84.4
47712;BME280;57457;51.634;5.886;2023-03-24T06:09:47;99800;;;10.5;84.2
47712;BME280;57457;51.634;5.886;2023-03-24T06:23:07;99800;;;10.5;83.5
47712;BME280;57457;51.634;5.886;2023-03-24T06:36:29;99800;;;10.6;83.1
47712;BME280;57457;51.634;5.886;2023-03-24T06:49:50;99800;;;10.8;82.3
47712;BME280;57457;51.634;5.886;2023-03-24T07:03:12;99800;;;11.1;82.0
47712;BME280;57457;51.634;5.886;2023-03-24T07:16:32;99800;;;11.2;81.9
47712;BME280;57457;51.634;5.886;2023-03-24T07:29:52;99800;;;11.4;81.3
47712;BME280;57457;51.634;5.886;2023-03-24T07:43:12;99800;;;11.6;80.7
47712;BME280;57457;51.634;5.886;2023-03-24T08:09:52;99900;;;12.1;80.2
47712;BME280;57457;51.634;5.886;2023-03-24T08:23:14;99900;;;12.4;79.8
47712;BME280;57457;51.634;5.886;2023-03-24T08:36:36;99900;;;12.5;80.3
47712;BME280;57457;51.634;5.886;2023-03-24T08:49:56;99900;;;12.7;77.7
47712;BME280;57457;51.634;5.886;2023-03-24T09:03:16;99900;;;13.0;78.6
47712;BME280;57457;51.634;5.886;2023-03-24T09:29:56;99900;;;13.4;76.1
47712;BME280;57457;51.634;5.886;2023-03-24T09:43:16;99900;;;13.5;76.2
47712;BME280;57457;51.634;5.886;2023-03-24T09:56:37;99900;;;13.3;76.7
47712;BME280;57457;51.634;5.886;2023-03-24T10:09:57;99900;;;13.5;79.4
47712;BME280;57457;51.634;5.886;2023-03-24T10:23:19;100000;;;13.2;79.5
47712;BME280;57457;51.634;5.886;2023-03-24T10:36:41;100000;;;13.3;77.3
47712;BME280;57457;51.634;5.886;2023-03-24T10:50:01;100000;;;13.5;76.2
47712;BME280;57457;51.634;5.886;2023-03-24T11:03:22;100000;;;13.6;73.2
47712;BME280;57457;51.634;5.886;2023-03-24T11:16:42;100000;;;13.8;70.9
47712;BME280;57457;51.634;5.886;2023-03-24T11:30:02;100000;;;14.0;71.3
47712;BME280;57457;51.634;5.886;2023-03-24T11:43:23;100000;;;14.0;71.2
47712;BME280;57457;51.634;5.886;2023-03-24T11:56:43;100000;;;14.4;69.7
47712;BME280;57457;51.634;5.886;2023-03-24T12:10:05;100000;;;14.7;68.2
47712;BME280;57457;51.634;5.886;2023-03-24T12:23:26;100000;;;14.7;70.1
47712;BME280;57457;51.634;5.886;2023-03-24T12:36:47;100000;;;14.5;83.0
47712;BME280;57457;51.634;5.886;2023-03-24T12:50:07;100000;;;13.0;85.2
47712;BME280;57457;51.634;5.886;2023-03-24T13:16:49;100000;;;11.4;84.9
47712;BME280;57457;51.634;5.886;2023-03-24T13:30:10;100000;;;11.4;82.8
47712;BME280;57457;51.634;5.886;2023-03-24T13:43:31;100000;;;11.8;82.1
47712;BME280;57457;51.634;5.886;2023-03-24T13:56:53;100000;;;12.3;79.9
47712;BME280;57457;51.634;5.886;2023-03-24T14:10:14;100000;;;12.8;78.8
47712;BME280;57457;51.634;5.886;2023-03-24T14:23:34;100000;;;13.2;77.0
47712;BME280;57457;51.634;5.886;2023-03-24T14:36:56;100000;;;13.5;76.7
47712;BME280;57457;51.634;5.886;2023-03-24T14:50:17;100000;;;13.5;79.0
47712;BME280;57457;51.634;5.886;2023-03-24T15:03:38;100000;;;13.5;78.2
47712;BME280;57457;51.634;5.886;2023-03-24T15:17:00;100000;;;13.7;81.0
47712;BME280;57457;51.634;5.886;2023-03-24T15:30:20;100000;;;13.6;82.2
47712;BME280;57457;51.634;5.886;2023-03-24T15:43:40;99900;;;13.3;81.6
47712;BME280;57457;51.634;5.886;2023-03-24T15:57:01;99900;;;13.1;81.2
47712;BME280;57457;51.634;5.886;2023-03-24T16:23:44;99900;;;13.5;79.5
47712;BME280;57457;51.634;5.886;2023-03-24T16:37:04;99900;;;13.5;79.4
47712;BME280;57457;51.634;5.886;2023-03-24T16:50:26;99900;;;13.5;76.2
47712;BME280;57457;51.634;5.886;2023-03-24T17:03:47;99900;;;13.4;75.3
47712;BME280;57457;51.634;5.886;2023-03-24T17:17:08;99900;;;13.4;75.7
47712;BME280;57457;51.634;5.886;2023-03-24T17:30:28;99900;;;13.2;77.2
47712;BME280;57457;51.634;5.886;2023-03-24T17:43:48;99900;;;13.0;77.6
47712;BME280;57457;51.634;5.886;2023-03-24T17:57:09;99900;;;12.9;78.6
47712;BME280;57457;51.634;5.886;2023-03-24T18:10:29;99900;;;12.8;80.7
47712;BME280;57457;51.634;5.886;2023-03-24T18:23:49;99900;;;12.6;81.4
47712;BME280;57457;51.634;5.886;2023-03-24T18:37:09;99900;;;12.5;81.0
47712;BME280;57457;51.634;5.886;2023-03-24T18:50:29;99900;;;12.4;80.4
47712;BME280;57457;51.634;5.886;2023-03-24T19:03:50;99900;;;12.4;82.4
47712;BME280;57457;51.634;5.886;2023-03-24T19:17:12;99900;;;12.1;82.1
47712;BME280;57457;51.634;5.886;2023-03-24T19:30:33;99900;;;11.9;82.5
47712;BME280;57457;51.634;5.886;2023-03-24T19:43:53;99900;;;11.7;82.4
47712;BME280;57457;51.634;5.886;2023-03-24T19:57:15;99900;;;11.5;83.1
47712;BME280;57457;51.634;5.886;2023-03-24T20:10:35;99900;;;11.3;83.5
47712;BME280;57457;51.634;5.886;2023-03-24T20:23:54;99900;;;11.0;83.3
47712;BME280;57457;51.634;5.886;2023-03-24T20:37:16;99900;;;10.8;83.1
47712;BME280;57457;51.634;5.886;2023-03-24T20:50:37;99900;;;10.6;83.1
47712;BME280;57457;51.634;5.886;2023-03-24T21:03:59;99900;;;10.4;83.3
47712;BME280;57457;51.634;5.886;2023-03-24T21:17:19;99900;;;10.3;83.3
47712;BME280;57457;51.634;5.886;2023-03-24T21:30:38;99900;;;10.3;83.3
47712;BME280;57457;51.634;5.886;2023-03-24T21:43:59;99900;;;10.2;83.5
47712;BME280;57457;51.634;5.886;2023-03-24T21:57:19;99900;;;10.2;84.1
47712;BME280;57457;51.634;5.886;2023-03-24T22:10:40;99900;;;10.1;84.6
47712;BME280;57457;51.634;5.886;2023-03-24T22:24:00;99900;;;10.0;84.7
47712;BME280;57457;51.634;5.886;2023-03-24T22:37:20;99900;;;9.9;84.6
47712;BME280;57457;51.634;5.886;2023-03-24T22:50:42;99900;;;9.8;84.4
47712;BME280;57457;51.634;5.886;2023-03-24T23:04:03;99900;;;9.7;84.3
47712;BME280;57457;51.634;5.886;2023-03-24T23:17:23;99900;;;9.7;84.6
47712;BME280;57457;51.634;5.886;2023-03-24T23:30:43;99900;;;9.6;84.3
47712;BME280;57457;51.634;5.886;2023-03-24T23:44:03;99900;;;9.6;84.5
47712;BME280;57457;51.634;5.886;2023-03-24T23:57:23;99900;;;9.7;84.3
